sensor_id;sensor_type;location;lat;lon;timestamp;pressure;altitude;pressure_sealevel;temperature;humidity
49945;BME280;35838;49.134;9.212;2023-05-03T00:00:24;100748.06;;;11.85;100.00
49945;BME280;35838;49.134;9.212;2023-05-03T00:01:59;100749.78;;;11.83;100.00
49945;BME280;35838;49.134;9.212;2023-05-03T00:03:33;100750.63;;;11.84;100.00
49945;BME280;35838;49.134;9.212;2023-05-03T00:05:04;100750.63;;;11.78;100.00
49945;BME280;35838;49.134;9.212;2023-05-03T00:06:41;100753.22;;;11.79;100.00
49945;BME280;35838;49.134;9.212;2023-05-03T00:08:15;100760.97;;;11.68;100.00
49945;BME280;35838;49.134;9.212;2023-05-03T00:09:46;100756.59;;;11.61;100.00
49945;BME280;35838;49.134;9.212;2023-05-03T00:11:20;100759.22;;;11.63;100.00
49945;BME280;35838;49.134;9.212;2023-05-03T00:12:53;100759.22;;;11.66;100.00
49945;BME280;35838;49.134;9.212;2023-05-03T00:14:27;100761.81;;;11.64;100.00
49945;BME280;35838;49.134;9.212;2023-05-03T00:16:01;100767.06;;;11.72;100.00
49945;BME280;35838;49.134;9.212;2023-05-03T00:17:34;100766.19;;;11.73;100.00
49945;BME280;35838;49.134;9.212;2023-05-03T00:19:08;100758.38;;;11.70;100.00
49945;BME280;35838;49.134;9.212;2023-05-03T00:20:42;100750.56;;;11.67;100.00
49945;BME280;35838;49.134;9.212;2023-05-03T00:22:18;100753.16;;;11.70;100.00
49945;BME280;35838;49.134;9.212;2023-05-03T00:23:52;100750.53;;;11.65;100.00
49945;BME280;35838;49.134;9.212;2023-05-03T00:25:26;100756.59;;;11.63;100.00
49945;BME280;35838;49.134;9.212;2023-05-03T00:26:57;100754.03;;;11.66;100.00
49945;BME280;35838;49.134;9.212;2023-05-03T00:28:31;100758.31;;;11.60;100.00
49945;BME280;35838;49.134;9.212;2023-05-03T00:30:05;100755.69;;;11.56;100.00
49945;BME280;35838;49.134;9.212;2023-05-03T00:31:39;100754.81;;;11.49;100.00
49945;BME280;35838;49.134;9.212;2023-05-03T00:33:10;100759.16;;;11.52;100.00
49945;BME280;35838;49.134;9.212;2023-05-03T00:34:44;100760.91;;;11.53;100.00
49945;BME280;35838;49.134;9.212;2023-05-03T00:36:18;100756.53;;;11.47;100.00
49945;BME280;35838;49.134;9.212;2023-05-03T00:37:54;100763.47;;;11.51;100.00
49945;BME280;35838;49.134;9.212;2023-05-03T00:39:28;100763.47;;;11.51;100.00
49945;BME280;35838;49.134;9.212;2023-05-03T00:41:02;100760.00;;;11.46;100.00
49945;BME280;35838;49.134;9.212;2023-05-03T00:42:36;100758.25;;;11.45;100.00
49945;BME280;35838;49.134;9.212;2023-05-03T00:44:07;100755.69;;;11.53;100.00
49945;BME280;35838;49.134;9.212;2023-05-03T00:45:40;100755.69;;;11.48;100.00
49945;BME280;35838;49.134;9.212;2023-05-03T00:47:15;100748.72;;;11.49;100.00
49945;BME280;35838;49.134;9.212;2023-05-03T00:48:50;100746.97;;;11.41;100.00
49945;BME280;35838;49.134;9.212;2023-05-03T00:50:23;100742.69;;;11.48;100.00
49945;BME280;35838;49.134;9.212;2023-05-03T00:51:57;100741.78;;;11.48;100.00
49945;BME280;35838;49.134;9.212;2023-05-03T00:53:33;100742.63;;;11.42;100.00
49945;BME280;35838;49.134;9.212;2023-05-03T00:55:07;100740.91;;;11.44;100.00
49945;BME280;35838;49.134;9.212;2023-05-03T00:56:39;100738.31;;;11.44;100.00
49945;BME280;35838;49.134;9.212;2023-05-03T00:58:13;100732.19;;;11.36;100.00
49945;BME280;35838;49.134;9.212;2023-05-03T00:59:47;100732.19;;;11.33;100.00
49945;BME280;35838;49.134;9.212;2023-05-03T01:01:20;100726.16;;;11.35;100.00
49945;BME280;35838;49.134;9.212;2023-05-03T01:02:51;100741.72;;;11.37;100.00
49945;BME280;35838;49.134;9.212;2023-05-03T01:04:25;100734.78;;;11.34;100.00
49945;BME280;35838;49.134;9.212;2023-05-03T01:06:00;100734.81;;;11.42;100.00
49945;BME280;35838;49.134;9.212;2023-05-03T01:07:39;100736.50;;;11.34;100.00
49945;BME280;35838;49.134;9.212;2023-05-03T01:09:20;100740.78;;;11.22;100.00
49945;BME280;35838;49.134;9.212;2023-05-03T01:10:56;100749.47;;;11.27;100.00
49945;BME280;35838;49.134;9.212;2023-05-03T01:12:36;100744.25;;;11.24;100.00
49945;BME280;35838;49.134;9.212;2023-05-03T01:14:15;100738.97;;;11.15;100.00
49945;BME280;35838;49.134;9.212;2023-05-03T01:15:53;100739.88;;;11.14;100.00
49945;BME280;35838;49.134;9.212;2023-05-03T01:17:33;100740.72;;;11.13;100.00
49945;BME280;35838;49.134;9.212;2023-05-03T01:19:14;100741.59;;;11.13;100.00
49945;BME280;35838;49.134;9.212;2023-05-03T01:20:52;100738.94;;;11.09;100.00
49945;BME280;35838;49.134;9.212;2023-05-03T01:22:31;100745.03;;;11.09;100.00
49945;BME280;35838;49.134;9.212;2023-05-03T01:24:06;100745.00;;;11.08;100.00
49945;BME280;35838;49.134;9.212;2023-05-03T01:25:43;100750.16;;;11.00;100.00
49945;BME280;35838;49.134;9.212;2023-05-03T01:27:17;100745.81;;;11.01;100.00
49945;BME280;35838;49.134;9.212;2023-05-03T01:28:50;100753.66;;;11.04;100.00
49945;BME280;35838;49.134;9.212;2023-05-03T01:30:25;100749.28;;;11.00;100.00
49945;BME280;35838;49.134;9.212;2023-05-03T01:31:59;100752.78;;;11.08;100.00
49945;BME280;35838;49.134;9.212;2023-05-03T01:33:32;100752.72;;;10.98;100.00
49945;BME280;35838;49.134;9.212;2023-05-03T01:35:11;100744.09;;;11.01;100.00
49945;BME280;35838;49.134;9.212;2023-05-03T01:36:46;100740.59;;;10.97;100.00
49945;BME280;35838;49.134;9.212;2023-05-03T01:38:21;100744.06;;;10.96;100.00
49945;BME280;35838;49.134;9.212;2023-05-03T01:39:57;100739.69;;;10.94;100.00
49945;BME280;35838;49.134;9.212;2023-05-03T01:41:34;100739.72;;;10.95;100.00
49945;BME280;35838;49.134;9.212;2023-05-03T01:43:08;100738.88;;;10.96;100.00
49945;BME280;35838;49.134;9.212;2023-05-03T01:44:40;100742.25;;;10.89;100.00
49945;BME280;35838;49.134;9.212;2023-05-03T01:46:15;100740.56;;;10.90;100.00
49945;BME280;35838;49.134;9.212;2023-05-03T01:47:48;100743.16;;;10.91;100.00
49945;BME280;35838;49.134;9.212;2023-05-03T01:49:22;100736.22;;;10.87;100.00
49945;BME280;35838;49.134;9.212;2023-05-03T01:50:55;100737.13;;;10.95;100.00
49945;BME280;35838;49.134;9.212;2023-05-03T01:52:29;100731.94;;;10.95;100.00
49945;BME280;35838;49.134;9.212;2023-05-03T01:54:03;100738.81;;;10.90;100.00
49945;BME280;35838;49.134;9.212;2023-05-03T01:55:37;100729.31;;;10.92;100.00
49945;BME280;35838;49.134;9.212;2023-05-03T01:57:13;100733.56;;;10.84;100.00
49945;BME280;35838;49.134;9.212;2023-05-03T01:58:47;100737.03;;;10.83;100.00
49945;BME280;35838;49.134;9.212;2023-05-03T02:00:18;100742.25;;;10.89;100.00
49945;BME280;35838;49.134;9.212;2023-05-03T02:01:51;100739.63;;;10.81;100.00
